PATL/TLJ METAR and TAF weather

Enter ICAO airport designator
Station Type Date Time Source
PATL METAR 2023/01/30 11:55 UTC NOAA

PATL 301155Z AUTO 00000KT 10SM OVC023 M05/M05 A3005 RMK AO2 SLP198 P0002 60013 70024 T10501052 11050 21070 57011 TSNO $


Station Type Date Time Source
PATL Decoded METAR 2023/01/30 11:55 UTC NOAA

Takotna, Tatalina LRRS Airport, AK, United States (PATL) 62-54N 155-59W
Jan 30, 2023 - 06:55 AM EST / 2023.01.30 1155 UTC
Wind: Calm:0
Visibility: 10 mile(s):0
Sky conditions: overcast
Precipitation last hour: 0.02 inches
Temperature: 23.0 F (-5.0 C)
Dew Point: 22.6 F (-5.2 C)
Relative Humidity: 98%
Pressure (altimeter): 30.05 in. Hg (1017 hPa)
Pressure tendency: 0.03 inches (1.1 hPa) lower than three hours ago
ob: PATL 301155Z AUTO 00000KT 10SM OVC023 M05/M05 A3005 RMK AO2 SLP198 P0002 60013 70024 T10501052 11050 21070 57011 TSNO
cycle: 12

Station Type Date Time Source
PATL TAF 2012/01/12 14:06 UTC NOAA

TAF PATL 1214/1320 VRB06KT 9999 FEW050 SCT110 QNH2998INS TM26/1300Z TM32/1315Z

Example: see airport list